sensor_id;sensor_type;location;lat;lon;timestamp;temperature;humidity
3134;DHT22;1577;49.912;10.924;2023-04-08T01:21:53;8.20;94.60
3134;DHT22;1577;49.912;10.924;2023-04-08T01:24:24;6.30;95.60
3134;DHT22;1577;49.912;10.924;2023-04-08T01:26:52;6.40;95.70
3134;DHT22;1577;49.912;10.924;2023-04-08T01:29:18;6.40;95.30
3134;DHT22;1577;49.912;10.924;2023-04-08T01:31:45;6.50;95.20
3134;DHT22;1577;49.912;10.924;2023-04-08T01:34:13;6.50;95.00
3134;DHT22;1577;49.912;10.924;2023-04-08T01:36:41;6.60;95.00
3134;DHT22;1577;49.912;10.924;2023-04-08T01:39:08;6.50;95.10
3134;DHT22;1577;49.912;10.924;2023-04-08T01:41:35;6.50;95.10
3134;DHT22;1577;49.912;10.924;2023-04-08T01:44:02;6.60;95.10
3134;DHT22;1577;49.912;10.924;2023-04-08T01:46:30;6.60;95.40
3134;DHT22;1577;49.912;10.924;2023-04-08T01:48:56;6.60;95.20
3134;DHT22;1577;49.912;10.924;2023-04-08T01:51:23;6.60;95.20
3134;DHT22;1577;49.912;10.924;2023-04-08T01:53:49;6.50;95.50
3134;DHT22;1577;49.912;10.924;2023-04-08T01:56:15;6.40;95.60
3134;DHT22;1577;49.912;10.924;2023-04-08T01:58:46;6.40;96.10
3134;DHT22;1577;49.912;10.924;2023-04-08T02:01:16;6.40;96.20
3134;DHT22;1577;49.912;10.924;2023-04-08T02:03:43;6.30;96.30
3134;DHT22;1577;49.912;10.924;2023-04-08T02:06:09;6.30;96.70
3134;DHT22;1577;49.912;10.924;2023-04-08T02:08:35;6.20;97.30
3134;DHT22;1577;49.912;10.924;2023-04-08T02:11:01;6.30;97.10
3134;DHT22;1577;49.912;10.924;2023-04-08T02:13:30;6.40;96.60
3134;DHT22;1577;49.912;10.924;2023-04-08T02:16:03;6.40;96.60
3134;DHT22;1577;49.912;10.924;2023-04-08T02:18:31;6.30;96.90
3134;DHT22;1577;49.912;10.924;2023-04-08T02:21:08;6.40;96.80
3134;DHT22;1577;49.912;10.924;2023-04-08T02:23:37;6.30;96.80
3134;DHT22;1577;49.912;10.924;2023-04-08T02:26:06;6.40;96.80
3134;DHT22;1577;49.912;10.924;2023-04-08T02:28:33;6.40;96.40
3134;DHT22;1577;49.912;10.924;2023-04-08T02:31:00;6.40;96.50
3134;DHT22;1577;49.912;10.924;2023-04-08T02:33:27;6.20;96.70
3134;DHT22;1577;49.912;10.924;2023-04-08T02:35:53;6.10;96.90
3134;DHT22;1577;49.912;10.924;2023-04-08T02:38:20;6.10;97.00
3134;DHT22;1577;49.912;10.924;2023-04-08T02:40:48;6.10;96.90
3134;DHT22;1577;49.912;10.924;2023-04-08T02:43:14;6.10;97.00
3134;DHT22;1577;49.912;10.924;2023-04-08T02:45:42;6.00;97.30
3134;DHT22;1577;49.912;10.924;2023-04-08T02:48:08;6.00;97.60
3134;DHT22;1577;49.912;10.924;2023-04-08T02:50:34;5.90;97.70
3134;DHT22;1577;49.912;10.924;2023-04-08T02:53:00;5.90;97.80
3134;DHT22;1577;49.912;10.924;2023-04-08T02:55:25;5.90;97.80
3134;DHT22;1577;49.912;10.924;2023-04-08T02:57:51;5.80;98.00
3134;DHT22;1577;49.912;10.924;2023-04-08T03:00:17;5.70;98.30
3134;DHT22;1577;49.912;10.924;2023-04-08T03:02:42;5.80;98.00
3134;DHT22;1577;49.912;10.924;2023-04-08T03:05:08;5.80;97.80
3134;DHT22;1577;49.912;10.924;2023-04-08T03:07:34;5.80;97.90
3134;DHT22;1577;49.912;10.924;2023-04-08T03:10:00;5.80;98.00
3134;DHT22;1577;49.912;10.924;2023-04-08T03:12:26;5.80;98.10
3134;DHT22;1577;49.912;10.924;2023-04-08T03:14:52;5.80;98.00
3134;DHT22;1577;49.912;10.924;2023-04-08T03:17:18;5.80;97.80
3134;DHT22;1577;49.912;10.924;2023-04-08T03:19:44;5.70;97.90
3134;DHT22;1577;49.912;10.924;2023-04-08T03:22:09;5.70;98.30
3134;DHT22;1577;49.912;10.924;2023-04-08T03:24:36;5.60;98.30
3134;DHT22;1577;49.912;10.924;2023-04-08T03:27:02;5.60;98.40
3134;DHT22;1577;49.912;10.924;2023-04-08T03:29:27;5.60;98.50
3134;DHT22;1577;49.912;10.924;2023-04-08T03:31:53;5.50;98.70
3134;DHT22;1577;49.912;10.924;2023-04-08T03:34:19;5.50;98.80
3134;DHT22;1577;49.912;10.924;2023-04-08T03:36:44;5.50;98.90
3134;DHT22;1577;49.912;10.924;2023-04-08T03:39:10;5.50;99.00
3134;DHT22;1577;49.912;10.924;2023-04-08T03:41:36;5.60;98.80
3134;DHT22;1577;49.912;10.924;2023-04-08T03:44:01;5.60;98.70
3134;DHT22;1577;49.912;10.924;2023-04-08T03:46:27;5.60;99.10
3134;DHT22;1577;49.912;10.924;2023-04-08T03:48:52;5.50;99.10
3134;DHT22;1577;49.912;10.924;2023-04-08T03:51:18;5.60;99.10
3134;DHT22;1577;49.912;10.924;2023-04-08T03:53:43;5.70;99.20
3134;DHT22;1577;49.912;10.924;2023-04-08T03:56:09;5.70;99.00
3134;DHT22;1577;49.912;10.924;2023-04-08T03:58:35;5.80;98.90
3134;DHT22;1577;49.912;10.924;2023-04-08T04:01:00;5.80;98.90
3134;DHT22;1577;49.912;10.924;2023-04-08T04:03:26;5.80;99.10
3134;DHT22;1577;49.912;10.924;2023-04-08T04:05:52;5.80;99.10
3134;DHT22;1577;49.912;10.924;2023-04-08T04:08:17;5.90;98.80
3134;DHT22;1577;49.912;10.924;2023-04-08T04:10:43;5.80;98.80
3134;DHT22;1577;49.912;10.924;2023-04-08T04:13:09;5.80;99.00
3134;DHT22;1577;49.912;10.924;2023-04-08T04:15:41;5.80;99.00
3134;DHT22;1577;49.912;10.924;2023-04-08T04:18:07;5.80;99.20
3134;DHT22;1577;49.912;10.924;2023-04-08T04:20:33;5.80;99.40
3134;DHT22;1577;49.912;10.924;2023-04-08T04:22:58;5.90;98.90
3134;DHT22;1577;49.912;10.924;2023-04-08T04:25:24;6.00;98.90
3134;DHT22;1577;49.912;10.924;2023-04-08T04:27:50;5.90;98.70
3134;DHT22;1577;49.912;10.924;2023-04-08T04:30:16;6.00;98.80
3134;DHT22;1577;49.912;10.924;2023-04-08T04:32:43;6.00;99.10
3134;DHT22;1577;49.912;10.924;2023-04-08T04:35:10;6.10;98.90
3134;DHT22;1577;49.912;10.924;2023-04-08T04:37:36;6.00;99.10
3134;DHT22;1577;49.912;10.924;2023-04-08T04:40:02;6.20;98.80
3134;DHT22;1577;49.912;10.924;2023-04-08T04:42:28;6.20;98.50
3134;DHT22;1577;49.912;10.924;2023-04-08T04:44:53;6.30;98.60
3134;DHT22;1577;49.912;10.924;2023-04-08T04:47:19;6.30;98.90
3134;DHT22;1577;49.912;10.924;2023-04-08T04:49:45;6.30;98.90
3134;DHT22;1577;49.912;10.924;2023-04-08T04:52:11;6.30;99.40
3134;DHT22;1577;49.912;10.924;2023-04-08T04:54:36;6.20;99.50
3134;DHT22;1577;49.912;10.924;2023-04-08T04:57:02;6.20;99.90
3134;DHT22;1577;49.912;10.924;2023-04-08T07:13:41;6.20;99.90
3134;DHT22;1577;49.912;10.924;2023-04-08T07:16:07;7.00;99.90
3134;DHT22;1577;49.912;10.924;2023-04-08T07:18:33;7.10;99.90
3134;DHT22;1577;49.912;10.924;2023-04-08T07:20:58;7.10;99.90
3134;DHT22;1577;49.912;10.924;2023-04-08T07:23:25;7.10;99.90
3134;DHT22;1577;49.912;10.924;2023-04-08T07:25:51;7.10;99.90
3134;DHT22;1577;49.912;10.924;2023-04-08T07:28:18;7.10;99.90
3134;DHT22;1577;49.912;10.924;2023-04-08T07:30:44;7.10;99.90
3134;DHT22;1577;49.912;10.924;2023-04-08T07:33:10;7.10;99.90
3134;DHT22;1577;49.912;10.924;2023-04-08T07:35:35;7.10;99.90
3134;DHT22;1577;49.912;10.924;2023-04-08T07:38:01;7.20;99.90
3134;DHT22;1577;49.912;10.924;2023-04-08T07:40:26;7.20;99.90
3134;DHT22;1577;49.912;10.924;2023-04-08T07:42:52;7.30;99.90
3134;DHT22;1577;49.912;10.924;2023-04-08T07:45:17;7.40;99.90
3134;DHT22;1577;49.912;10.924;2023-04-08T07:47:43;7.50;99.90
3134;DHT22;1577;49.912;10.924;2023-04-08T07:50:09;7.50;99.90
3134;DHT22;1577;49.912;10.924;2023-04-08T07:55:01;7.60;99.90
3134;DHT22;1577;49.912;10.924;2023-04-08T07:57:26;7.70;99.90
3134;DHT22;1577;49.912;10.924;2023-04-08T07:59:52;7.70;99.90
3134;DHT22;1577;49.912;10.924;2023-04-08T08:02:18;7.70;99.90
3134;DHT22;1577;49.912;10.924;2023-04-08T08:04:43;7.80;99.90
3134;DHT22;1577;49.912;10.924;2023-04-08T08:07:09;7.90;99.90
3134;DHT22;1577;49.912;10.924;2023-04-08T08:09:34;7.90;99.90
3134;DHT22;1577;49.912;10.924;2023-04-08T08:12:00;8.00;99.90
3134;DHT22;1577;49.912;10.924;2023-04-08T08:14:26;8.10;99.90
3134;DHT22;1577;49.912;10.924;2023-04-08T08:16:52;8.20;99.90
3134;DHT22;1577;49.912;10.924;2023-04-08T08:19:19;8.30;99.90
3134;DHT22;1577;49.912;10.924;2023-04-08T08:21:45;8.20;99.90
3134;DHT22;1577;49.912;10.924;2023-04-08T08:24:11;8.20;99.90
3134;DHT22;1577;49.912;10.924;2023-04-08T08:26:37;8.20;99.90
3134;DHT22;1577;49.912;10.924;2023-04-08T08:29:03;8.30;99.90
3134;DHT22;1577;49.912;10.924;2023-04-08T08:31:29;8.40;99.90
3134;DHT22;1577;49.912;10.924;2023-04-08T08:33:55;8.40;99.90
3134;DHT22;1577;49.912;10.924;2023-04-08T08:51:10;8.40;99.90
3134;DHT22;1577;49.912;10.924;2023-04-08T08:53:36;8.10;99.90
3134;DHT22;1577;49.912;10.924;2023-04-08T08:56:03;8.20;99.90
3134;DHT22;1577;49.912;10.924;2023-04-08T08:58:28;8.30;99.90
3134;DHT22;1577;49.912;10.924;2023-04-08T09:00:54;8.30;99.90
3134;DHT22;1577;49.912;10.924;2023-04-08T09:03:21;8.40;99.90
3134;DHT22;1577;49.912;10.924;2023-04-08T09:06:05;8.50;99.90
3134;DHT22;1577;49.912;10.924;2023-04-08T09:08:35;8.50;99.90
3134;DHT22;1577;49.912;10.924;2023-04-08T09:11:18;8.70;99.90
3134;DHT22;1577;49.912;10.924;2023-04-08T09:13:44;8.80;99.90
3134;DHT22;1577;49.912;10.924;2023-04-08T09:16:12;8.90;99.90
3134;DHT22;1577;49.912;10.924;2023-04-08T09:18:40;8.90;99.90
3134;DHT22;1577;49.912;10.924;2023-04-08T09:21:08;9.00;99.90
3134;DHT22;1577;49.912;10.924;2023-04-08T09:23:59;9.00;99.90
3134;DHT22;1577;49.912;10.924;2023-04-08T09:26:25;9.10;99.90
3134;DHT22;1577;49.912;10.924;2023-04-08T09:29:07;9.30;99.90
3134;DHT22;1577;49.912;10.924;2023-04-08T09:31:37;9.80;99.90
3134;DHT22;1577;49.912;10.924;2023-04-08T09:34:12;10.40;99.90
3134;DHT22;1577;49.912;10.924;2023-04-08T09:36:37;10.60;99.90
3134;DHT22;1577;49.912;10.924;2023-04-08T09:39:03;10.70;99.90
3134;DHT22;1577;49.912;10.924;2023-04-08T09:41:33;10.50;99.90
3134;DHT22;1577;49.912;10.924;2023-04-08T09:44:01;10.40;99.90
3134;DHT22;1577;49.912;10.924;2023-04-08T09:46:46;10.20;99.90
3134;DHT22;1577;49.912;10.924;2023-04-08T09:55:00;10.00;99.90
3134;DHT22;1577;49.912;10.924;2023-04-08T10:00:53;10.00;99.90
3134;DHT22;1577;49.912;10.924;2023-04-08T10:03:29;10.00;99.90
3134;DHT22;1577;49.912;10.924;2023-04-08T10:05:57;10.00;99.90
3134;DHT22;1577;49.912;10.924;2023-04-08T10:08:26;9.90;99.90
3134;DHT22;1577;49.912;10.924;2023-04-08T10:10:53;9.90;99.90
3134;DHT22;1577;49.912;10.924;2023-04-08T10:13:19;9.90;99.90
3134;DHT22;1577;49.912;10.924;2023-04-08T10:15:45;9.90;99.90
3134;DHT22;1577;49.912;10.924;2023-04-08T10:20:45;9.80;99.90
3134;DHT22;1577;49.912;10.924;2023-04-08T10:23:15;9.80;99.90
3134;DHT22;1577;49.912;10.924;2023-04-08T10:25:47;9.70;99.90
3134;DHT22;1577;49.912;10.924;2023-04-08T10:30:49;9.80;99.90
3134;DHT22;1577;49.912;10.924;2023-04-08T10:38:34;10.00;99.90
3134;DHT22;1577;49.912;10.924;2023-04-08T10:41:00;10.20;99.90
3134;DHT22;1577;49.912;10.924;2023-04-08T10:43:31;10.40;99.90
3134;DHT22;1577;49.912;10.924;2023-04-08T10:45:57;10.40;99.90
3134;DHT22;1577;49.912;10.924;2023-04-08T10:48:23;10.50;99.90
3134;DHT22;1577;49.912;10.924;2023-04-08T10:53:34;10.50;99.90
3134;DHT22;1577;49.912;10.924;2023-04-08T10:58:32;10.60;99.90
3134;DHT22;1577;49.912;10.924;2023-04-08T11:01:05;10.60;99.90
3134;DHT22;1577;49.912;10.924;2023-04-08T11:03:32;10.60;99.90
3134;DHT22;1577;49.912;10.924;2023-04-08T11:05:59;10.70;99.90
3134;DHT22;1577;49.912;10.924;2023-04-08T11:08:32;10.80;99.90
3134;DHT22;1577;49.912;10.924;2023-04-08T11:10:59;10.70;99.90
3134;DHT22;1577;49.912;10.924;2023-04-08T11:13:29;10.70;99.90
3134;DHT22;1577;49.912;10.924;2023-04-08T11:15:55;10.80;99.90
3134;DHT22;1577;49.912;10.924;2023-04-08T11:18:22;10.70;99.90
3134;DHT22;1577;49.912;10.924;2023-04-08T11:20:52;10.70;99.90
3134;DHT22;1577;49.912;10.924;2023-04-08T11:23:18;10.80;99.90
3134;DHT22;1577;49.912;10.924;2023-04-08T11:25:45;10.90;99.90
3134;DHT22;1577;49.912;10.924;2023-04-08T11:28:11;11.10;99.90
3134;DHT22;1577;49.912;10.924;2023-04-08T11:30:40;11.40;99.90
3134;DHT22;1577;49.912;10.924;2023-04-08T11:33:06;11.50;99.90
3134;DHT22;1577;49.912;10.924;2023-04-08T11:35:32;11.60;99.90
3134;DHT22;1577;49.912;10.924;2023-04-08T11:37:58;11.70;99.90
3134;DHT22;1577;49.912;10.924;2023-04-08T11:40:24;11.90;99.90
3134;DHT22;1577;49.912;10.924;2023-04-08T11:42:51;12.10;99.90
3134;DHT22;1577;49.912;10.924;2023-04-08T11:45:18;12.20;99.90
3134;DHT22;1577;49.912;10.924;2023-04-08T11:47:46;12.30;99.90
3134;DHT22;1577;49.912;10.924;2023-04-08T11:50:11;12.60;99.90
3134;DHT22;1577;49.912;10.924;2023-04-08T11:55:06;12.70;99.90
3134;DHT22;1577;49.912;10.924;2023-04-08T11:57:32;12.50;99.90
3134;DHT22;1577;49.912;10.924;2023-04-08T11:59:57;12.20;99.90
3134;DHT22;1577;49.912;10.924;2023-04-08T12:02:23;11.90;99.90
3134;DHT22;1577;49.912;10.924;2023-04-08T12:04:48;11.80;99.90
3134;DHT22;1577;49.912;10.924;2023-04-08T12:07:16;11.90;99.90
3134;DHT22;1577;49.912;10.924;2023-04-08T12:09:42;12.00;99.90
3134;DHT22;1577;49.912;10.924;2023-04-08T12:12:07;12.00;99.90
3134;DHT22;1577;49.912;10.924;2023-04-08T12:14:33;12.20;99.90
3134;DHT22;1577;49.912;10.924;2023-04-08T12:17:05;12.20;99.90
3134;DHT22;1577;49.912;10.924;2023-04-08T12:19:31;12.10;99.90
3134;DHT22;1577;49.912;10.924;2023-04-08T12:21:56;12.00;99.90
3134;DHT22;1577;49.912;10.924;2023-04-08T12:24:22;11.80;99.90
3134;DHT22;1577;49.912;10.924;2023-04-08T12:26:47;11.60;99.90
3134;DHT22;1577;49.912;10.924;2023-04-08T12:29:13;11.30;99.90
3134;DHT22;1577;49.912;10.924;2023-04-08T12:31:38;11.00;99.90
3134;DHT22;1577;49.912;10.924;2023-04-08T12:34:04;10.90;99.90
3134;DHT22;1577;49.912;10.924;2023-04-08T12:36:31;10.90;99.90
3134;DHT22;1577;49.912;10.924;2023-04-08T12:38:56;10.90;99.90
3134;DHT22;1577;49.912;10.924;2023-04-08T12:41:22;10.90;99.90
3134;DHT22;1577;49.912;10.924;2023-04-08T12:43:48;11.00;99.90
3134;DHT22;1577;49.912;10.924;2023-04-08T12:46:13;11.10;99.90
3134;DHT22;1577;49.912;10.924;2023-04-08T12:48:39;11.00;99.90
3134;DHT22;1577;49.912;10.924;2023-04-08T12:51:05;10.90;99.90
3134;DHT22;1577;49.912;10.924;2023-04-08T12:53:30;10.90;99.90
3134;DHT22;1577;49.912;10.924;2023-04-08T12:55:56;10.90;99.90
3134;DHT22;1577;49.912;10.924;2023-04-08T12:58:24;11.00;99.90
3134;DHT22;1577;49.912;10.924;2023-04-08T13:00:50;11.10;99.90
3134;DHT22;1577;49.912;10.924;2023-04-08T13:03:15;11.30;99.90
3134;DHT22;1577;49.912;10.924;2023-04-08T13:05:42;11.50;99.90
3134;DHT22;1577;49.912;10.924;2023-04-08T13:08:08;11.60;99.90
3134;DHT22;1577;49.912;10.924;2023-04-08T13:10:35;11.70;99.90
3134;DHT22;1577;49.912;10.924;2023-04-08T13:13:00;11.80;99.90
3134;DHT22;1577;49.912;10.924;2023-04-08T13:15:26;11.70;99.90
3134;DHT22;1577;49.912;10.924;2023-04-08T13:17:51;11.70;99.90
3134;DHT22;1577;49.912;10.924;2023-04-08T13:20:17;11.60;99.90
3134;DHT22;1577;49.912;10.924;2023-04-08T13:22:42;11.50;99.90
3134;DHT22;1577;49.912;10.924;2023-04-08T13:25:08;11.40;99.90
3134;DHT22;1577;49.912;10.924;2023-04-08T13:27:34;11.30;99.90
3134;DHT22;1577;49.912;10.924;2023-04-08T13:29:59;11.20;99.90
3134;DHT22;1577;49.912;10.924;2023-04-08T13:32:25;11.20;99.90
3134;DHT22;1577;49.912;10.924;2023-04-08T13:34:51;11.20;99.90
3134;DHT22;1577;49.912;10.924;2023-04-08T13:37:16;11.20;99.90
3134;DHT22;1577;49.912;10.924;2023-04-08T13:39:42;11.20;99.90
3134;DHT22;1577;49.912;10.924;2023-04-08T13:42:07;11.20;99.90
3134;DHT22;1577;49.912;10.924;2023-04-08T13:44:33;11.30;99.90
3134;DHT22;1577;49.912;10.924;2023-04-08T13:46:59;11.30;99.90
3134;DHT22;1577;49.912;10.924;2023-04-08T13:49:24;11.20;99.90
3134;DHT22;1577;49.912;10.924;2023-04-08T13:51:50;11.10;99.90
3134;DHT22;1577;49.912;10.924;2023-04-08T13:54:15;11.10;99.90
3134;DHT22;1577;49.912;10.924;2023-04-08T13:56:41;11.10;99.90
3134;DHT22;1577;49.912;10.924;2023-04-08T13:59:07;11.00;99.90
3134;DHT22;1577;49.912;10.924;2023-04-08T14:01:34;10.90;99.90
3134;DHT22;1577;49.912;10.924;2023-04-08T14:04:00;10.80;99.90
3134;DHT22;1577;49.912;10.924;2023-04-08T14:06:25;10.70;99.90
3134;DHT22;1577;49.912;10.924;2023-04-08T14:08:51;10.70;99.90
3134;DHT22;1577;49.912;10.924;2023-04-08T14:11:17;10.70;99.90
3134;DHT22;1577;49.912;10.924;2023-04-08T14:13:42;10.80;99.90
3134;DHT22;1577;49.912;10.924;2023-04-08T14:16:08;10.70;99.90
3134;DHT22;1577;49.912;10.924;2023-04-08T14:18:34;10.70;99.90
3134;DHT22;1577;49.912;10.924;2023-04-08T14:21:00;10.70;99.90
3134;DHT22;1577;49.912;10.924;2023-04-08T14:23:26;10.60;99.90
3134;DHT22;1577;49.912;10.924;2023-04-08T14:25:52;10.50;99.90
3134;DHT22;1577;49.912;10.924;2023-04-08T14:28:18;10.30;99.90
3134;DHT22;1577;49.912;10.924;2023-04-08T14:30:43;10.20;99.90
3134;DHT22;1577;49.912;10.924;2023-04-08T14:33:09;10.20;99.90
3134;DHT22;1577;49.912;10.924;2023-04-08T14:35:34;10.10;99.90
3134;DHT22;1577;49.912;10.924;2023-04-08T14:38:01;10.10;99.90
3134;DHT22;1577;49.912;10.924;2023-04-08T14:40:26;10.10;99.90
3134;DHT22;1577;49.912;10.924;2023-04-08T14:42:52;10.20;99.90
3134;DHT22;1577;49.912;10.924;2023-04-08T14:45:18;10.30;99.90
3134;DHT22;1577;49.912;10.924;2023-04-08T14:47:43;10.40;99.90
3134;DHT22;1577;49.912;10.924;2023-04-08T14:50:09;10.40;99.90
3134;DHT22;1577;49.912;10.924;2023-04-08T14:52:35;10.30;99.90
3134;DHT22;1577;49.912;10.924;2023-04-08T14:55:00;10.30;99.90
3134;DHT22;1577;49.912;10.924;2023-04-08T14:57:27;10.30;99.90
3134;DHT22;1577;49.912;10.924;2023-04-08T15:02:18;10.10;99.90
3134;DHT22;1577;49.912;10.924;2023-04-08T15:04:44;9.90;99.90
3134;DHT22;1577;49.912;10.924;2023-04-08T15:07:10;9.90;99.90
3134;DHT22;1577;49.912;10.924;2023-04-08T15:09:36;9.90;99.90
3134;DHT22;1577;49.912;10.924;2023-04-08T15:12:01;10.10;99.90
3134;DHT22;1577;49.912;10.924;2023-04-08T15:14:27;10.20;99.90
3134;DHT22;1577;49.912;10.924;2023-04-08T15:16:53;10.30;99.90
3134;DHT22;1577;49.912;10.924;2023-04-08T15:19:18;10.30;99.90
3134;DHT22;1577;49.912;10.924;2023-04-08T15:21:44;10.50;99.90
3134;DHT22;1577;49.912;10.924;2023-04-08T15:24:10;10.70;99.90
3134;DHT22;1577;49.912;10.924;2023-04-08T15:26:37;10.80;99.90
3134;DHT22;1577;49.912;10.924;2023-04-08T15:29:02;10.80;99.90
3134;DHT22;1577;49.912;10.924;2023-04-08T15:31:29;10.80;99.90
3134;DHT22;1577;49.912;10.924;2023-04-08T15:33:55;10.80;99.90
3134;DHT22;1577;49.912;10.924;2023-04-08T15:36:22;10.70;99.90
3134;DHT22;1577;49.912;10.924;2023-04-08T15:38:48;10.60;99.90
3134;DHT22;1577;49.912;10.924;2023-04-08T15:41:18;10.50;99.90
3134;DHT22;1577;49.912;10.924;2023-04-08T15:43:44;10.50;99.90
3134;DHT22;1577;49.912;10.924;2023-04-08T15:46:10;10.40;99.90
3134;DHT22;1577;49.912;10.924;2023-04-08T15:48:36;10.30;99.90
3134;DHT22;1577;49.912;10.924;2023-04-08T15:51:08;10.30;99.90
3134;DHT22;1577;49.912;10.924;2023-04-08T15:53:34;10.30;99.90
3134;DHT22;1577;49.912;10.924;2023-04-08T15:55:59;10.30;99.90
3134;DHT22;1577;49.912;10.924;2023-04-08T15:58:27;10.30;99.90
3134;DHT22;1577;49.912;10.924;2023-04-08T16:00:53;10.40;99.90
3134;DHT22;1577;49.912;10.924;2023-04-08T16:03:20;10.40;99.90
3134;DHT22;1577;49.912;10.924;2023-04-08T16:05:45;10.30;99.90
3134;DHT22;1577;49.912;10.924;2023-04-08T16:08:11;10.30;99.90
3134;DHT22;1577;49.912;10.924;2023-04-08T16:10:36;10.30;99.90
3134;DHT22;1577;49.912;10.924;2023-04-08T16:13:02;10.40;99.90
3134;DHT22;1577;49.912;10.924;2023-04-08T16:15:27;10.40;99.90
3134;DHT22;1577;49.912;10.924;2023-04-08T16:17:53;10.40;99.90
3134;DHT22;1577;49.912;10.924;2023-04-08T16:20:19;10.40;99.90
3134;DHT22;1577;49.912;10.924;2023-04-08T16:22:45;10.40;99.90
3134;DHT22;1577;49.912;10.924;2023-04-08T16:25:11;10.30;99.90
3134;DHT22;1577;49.912;10.924;2023-04-08T16:27:37;10.20;99.90
3134;DHT22;1577;49.912;10.924;2023-04-08T16:30:03;10.10;99.90
3134;DHT22;1577;49.912;10.924;2023-04-08T16:32:30;10.00;99.90
3134;DHT22;1577;49.912;10.924;2023-04-08T16:34:55;9.90;99.90
3134;DHT22;1577;49.912;10.924;2023-04-08T16:39:47;9.80;99.90
3134;DHT22;1577;49.912;10.924;2023-04-08T16:42:13;9.70;99.90
3134;DHT22;1577;49.912;10.924;2023-04-08T16:47:05;9.60;99.90
3134;DHT22;1577;49.912;10.924;2023-04-08T16:51:56;9.60;99.90
3134;DHT22;1577;49.912;10.924;2023-04-08T16:54:22;9.50;99.90
3134;DHT22;1577;49.912;10.924;2023-04-08T16:56:48;9.60;99.90
3134;DHT22;1577;49.912;10.924;2023-04-08T17:04:06;9.60;99.90
3134;DHT22;1577;49.912;10.924;2023-04-08T17:06:32;9.50;99.90
3134;DHT22;1577;49.912;10.924;2023-04-08T18:27:11;9.50;99.90
3134;DHT22;1577;49.912;10.924;2023-04-08T18:29:36;8.90;99.90
3134;DHT22;1577;49.912;10.924;2023-04-08T18:46:42;8.90;99.90
3134;DHT22;1577;49.912;10.924;2023-04-08T18:51:36;8.90;99.90
3134;DHT22;1577;49.912;10.924;2023-04-08T18:54:02;8.90;99.90
3134;DHT22;1577;49.912;10.924;2023-04-08T18:56:27;8.90;99.90
3134;DHT22;1577;49.912;10.924;2023-04-08T19:23:14;8.90;99.90
